Time;durP1;ratioP1;P1;durP2;ratioP2;P2;SDS_P1;SDS_P2;PMS_P1;PMS_P2;Temp;Humidity;BMP_temperature;BMP_pressure;BME280_temperature;BME280_humidity;BME280_pressure;Samples;Min_cycle;Max_cycle;Signal;HPM_P1;HPM_P2
2022/12/19 00:02:06;;;;;;;29.20;16.37;;;;;;;4.44;49.90;103475.97;5017137;28;20391;-78
2022/12/19 00:04:33;;;;;;;34.73;22.63;;;;;;;4.49;49.75;103478.44;5013021;28;20395;-78
2022/12/19 00:06:59;;;;;;;29.45;15.57;;;;;;;4.38;49.66;103481.50;4995992;28;20463;-78
2022/12/19 00:09:25;;;;;;;27.75;15.40;;;;;;;4.45;49.42;103477.69;5013869;28;20430;-78
2022/12/19 00:11:51;;;;;;;25.20;14.65;;;;;;;4.36;49.21;103485.94;5028418;28;20463;-78
2022/12/19 00:14:16;;;;;;;28.23;15.82;;;;;;;4.32;49.44;103479.09;4999515;28;20428;-79
2022/12/19 00:16:42;;;;;;;29.37;15.53;;;;;;;4.36;49.54;103483.31;5027976;28;20444;-79
2022/12/19 00:19:09;;;;;;;26.07;14.67;;;;;;;4.45;49.54;103482.06;5033467;28;20901;-78
2022/12/19 00:21:36;;;;;;;27.30;15.63;;;;;;;4.38;49.90;103481.50;5032845;28;20462;-79
2022/12/19 00:24:06;;;;;;;25.38;14.90;;;;;;;4.52;49.50;103487.03;5032514;28;20494;-79
2022/12/19 00:26:34;;;;;;;28.98;15.15;;;;;;;4.47;49.32;103493.41;5012629;28;20425;-79
2022/12/19 00:29:03;;;;;;;31.80;16.58;;;;;;;4.44;49.69;103491.72;5033683;28;20818;-79
2022/12/19 00:31:32;;;;;;;27.60;15.27;;;;;;;4.39;49.45;103486.69;5032437;28;20421;-78
2022/12/19 00:33:58;;;;;;;27.67;16.08;;;;;;;4.37;49.48;103485.88;5032814;28;20478;-79
2022/12/19 00:36:26;;;;;;;28.92;15.48;;;;;;;4.40;49.62;103490.16;5032335;28;20748;-79
2022/12/19 00:38:54;;;;;;;31.10;16.85;;;;;;;4.47;49.53;103491.63;5032204;28;20456;-78
2022/12/19 00:41:25;;;;;;;31.50;16.67;;;;;;;4.50;49.43;103488.88;5036902;28;20400;-78
2022/12/19 00:43:56;;;;;;;29.65;15.95;;;;;;;4.49;49.82;103487.16;5053612;28;20444;-79
2022/12/19 00:46:22;;;;;;;28.52;16.23;;;;;;;4.67;49.37;103484.72;5041361;28;20401;-81
2022/12/19 00:48:48;;;;;;;27.17;15.90;;;;;;;4.69;49.11;103488.97;5033138;28;20818;-81
2022/12/19 00:51:19;;;;;;;30.10;17.00;;;;;;;4.76;48.87;103489.59;5015960;28;20387;-81
2022/12/19 00:53:47;;;;;;;31.00;16.80;;;;;;;4.78;49.11;103490.38;5012034;28;20892;-80
2022/12/19 00:56:15;;;;;;;35.90;17.60;;;;;;;4.78;49.12;103477.22;5013557;28;20376;-81
2022/12/19 00:58:42;;;;;;;33.90;18.20;;;;;;;4.73;49.46;103489.69;5013436;28;20573;-81
2022/12/19 01:01:11;;;;;;;32.67;16.88;;;;;;;4.63;48.99;103491.84;5020958;28;20497;-81
2022/12/19 01:03:36;;;;;;;37.47;18.05;;;;;;;4.58;49.43;103499.06;5033194;28;20382;-82
2022/12/19 01:06:02;;;;;;;33.88;17.20;;;;;;;4.42;49.33;103492.72;5013995;28;20731;-82
2022/12/19 01:08:27;;;;;;;30.95;16.98;;;;;;;4.42;49.44;103498.81;5032265;28;20394;-82
2022/12/19 01:10:53;;;;;;;28.43;16.43;;;;;;;4.52;49.46;103492.28;5015467;28;20375;-81
2022/12/19 01:13:20;;;;;;;27.87;15.13;;;;;;;4.51;49.18;103494.97;5033271;28;20400;-81
2022/12/19 01:15:46;;;;;;;32.03;15.73;;;;;;;4.54;49.30;103493.09;5028121;28;20402;-81
2022/12/19 01:18:12;;;;;;;29.70;16.03;;;;;;;4.56;49.55;103487.78;5013123;28;20388;-81
2022/12/19 01:20:39;;;;;;;29.52;15.35;;;;;;;4.53;49.55;103485.25;5012537;28;20380;-81
2022/12/19 01:23:05;;;;;;;28.95;16.50;;;;;;;4.50;49.74;103491.50;5013009;28;20384;-81
2022/12/19 01:25:32;;;;;;;27.27;15.77;;;;;;;4.52;49.25;103491.41;5024449;28;20394;-82
2022/12/19 01:27:58;;;;;;;28.38;15.85;;;;;;;4.57;49.36;103486.84;5032439;28;20382;-81
2022/12/19 01:30:24;;;;;;;28.70;16.00;;;;;;;4.44;49.25;103486.47;5031651;28;20437;-81
2022/12/19 01:32:50;;;;;;;30.13;15.10;;;;;;;4.31;49.54;103487.91;5031425;28;20425;-81
2022/12/19 01:35:15;;;;;;;26.43;14.63;;;;;;;4.35;49.78;103490.31;5015098;28;20473;-81
2022/12/19 01:37:40;;;;;;;28.80;14.73;;;;;;;4.33;49.42;103484.28;5032900;28;20747;-82
2022/12/19 01:40:06;;;;;;;33.03;16.50;;;;;;;4.33;50.16;103483.44;5031468;28;20466;-81
2022/12/19 01:42:36;;;;;;;36.22;17.45;;;;;;;4.50;49.53;103477.50;5032823;28;20477;-81
2022/12/19 01:45:04;;;;;;;44.72;20.30;;;;;;;4.52;49.29;103480.91;5032550;28;20410;-80
2022/12/19 01:47:34;;;;;;;25.70;14.10;;;;;;;4.60;49.37;103478.84;5032661;28;20489;-81
2022/12/19 01:50:02;;;;;;;25.90;14.65;;;;;;;4.66;49.20;103475.09;5014673;28;20894;-81
2022/12/19 01:52:28;;;;;;;27.13;14.40;;;;;;;4.63;48.80;103469.97;5017500;28;20415;-81
2022/12/19 01:54:54;;;;;;;28.08;14.60;;;;;;;4.51;49.33;103482.69;5036272;28;20803;-80
2022/12/19 01:57:20;;;;;;;32.03;15.07;;;;;;;4.38;49.67;103477.09;5034881;28;20402;-81
2022/12/19 01:59:53;;;;;;;32.13;15.17;;;;;;;4.38;49.46;103479.72;5017538;28;20394;-81
2022/12/19 02:02:30;;;;;;;32.05;15.77;;;;;;;4.37;49.53;103474.50;5035391;28;20481;-80
2022/12/19 02:04:55;;;;;;;32.38;15.50;;;;;;;4.40;49.84;103503.28;5036287;28;20399;-81
2022/12/19 02:07:24;;;;;;;30.15;15.10;;;;;;;4.29;49.75;103482.69;5035954;28;20374;-81
2022/12/19 02:09:52;;;;;;;32.53;16.83;;;;;;;4.45;49.86;103484.69;5035553;28;20418;-80
2022/12/19 02:12:18;;;;;;;30.80;16.60;;;;;;;4.54;49.39;103489.59;5034831;28;21300;-80
2022/12/19 02:14:44;;;;;;;30.97;15.23;;;;;;;4.47;49.46;103486.38;5035005;28;20450;-81
2022/12/19 02:17:12;;;;;;;35.57;16.37;;;;;;;4.44;49.58;103475.97;5034922;28;20402;-80
2022/12/19 02:19:49;;;;;;;33.17;15.57;;;;;;;4.50;49.75;103470.50;5018397;28;20382;-81
2022/12/19 02:22:27;;;;;;;32.97;17.08;;;;;;;4.46;49.62;103489.06;5036169;28;20893;-81
2022/12/19 02:25:08;;;;;;;31.80;17.83;;;;;;;4.53;49.39;103483.47;5036168;28;20405;-81
2022/12/19 02:27:55;;;;;;;35.45;17.38;;;;;;;4.55;49.92;103481.63;5035865;28;20464;-81
2022/12/19 02:30:42;;;;;;;28.08;15.30;;;;;;;4.43;49.79;103478.66;5032629;28;20414;-81
2022/12/19 02:33:30;;;;;;;31.25;15.07;;;;;;;4.56;49.57;103491.25;5017718;28;20393;-80
2022/12/19 02:36:09;;;;;;;30.80;15.75;;;;;;;4.49;49.39;103475.81;5034682;28;20382;-81
2022/12/19 02:38:50;;;;;;;32.35;16.35;;;;;;;4.50;49.97;103488.88;5035319;28;20378;-81
2022/12/19 02:41:41;;;;;;;35.85;16.92;;;;;;;4.52;49.79;103491.41;5035734;28;20847;-80
2022/12/19 02:44:12;;;;;;;33.47;16.77;;;;;;;4.48;49.88;103492.47;5033495;28;20398;-81
2022/12/19 02:46:40;;;;;;;44.15;19.42;;;;;;;4.51;49.64;103487.94;5035023;28;20398;-81
2022/12/19 02:49:06;;;;;;;30.15;15.77;;;;;;;4.48;49.67;103493.31;5035208;28;20410;-80
2022/12/19 02:51:31;;;;;;;33.27;17.30;;;;;;;4.50;50.17;103493.25;5037565;28;20747;-81
2022/12/19 02:53:57;;;;;;;33.93;16.33;;;;;;;4.54;50.14;103489.59;5037169;28;20460;-81
2022/12/19 02:56:39;;;;;;;38.27;18.20;;;;;;;4.58;49.58;103492.03;5036744;28;20715;-81
2022/12/19 02:59:23;;;;;;;34.97;17.00;;;;;;;4.55;49.79;103486.91;5034861;28;20390;-81
2022/12/19 03:01:56;;;;;;;41.67;18.27;;;;;;;4.64;49.59;103487.44;5016483;28;20386;-80
2022/12/19 03:04:30;;;;;;;34.50;16.48;;;;;;;4.61;49.82;103477.94;5035215;28;20461;-80
2022/12/19 03:07:07;;;;;;;28.70;14.93;;;;;;;4.79;49.74;103486.84;5017619;28;20892;-80
2022/12/19 03:09:47;;;;;;;31.08;16.48;;;;;;;4.70;49.93;103489.81;5035421;28;20514;-80
2022/12/19 03:12:49;;;;;;;32.45;16.02;;;;;;;4.55;49.79;103492.16;5035818;28;20501;-80
2022/12/19 03:15:15;;;;;;;31.90;15.40;;;;;;;4.51;50.18;103494.97;5026522;28;20583;-80
2022/12/19 03:17:41;;;;;;;42.95;18.98;;;;;;;4.49;50.06;103492.41;5035573;28;20382;-81
2022/12/19 03:20:16;;;;;;;40.97;18.15;;;;;;;4.49;50.08;103495.03;5017260;28;20389;-80
2022/12/19 03:22:41;;;;;;;34.15;16.65;;;;;;;4.50;50.45;103501.13;5035434;28;20390;-80
2022/12/19 03:25:07;;;;;;;31.08;15.52;;;;;;;4.37;50.26;103485.88;5018149;28;20396;-81
2022/12/19 03:27:36;;;;;;;33.15;15.95;;;;;;;4.41;50.38;103494.47;5035677;28;20464;-80
2022/12/19 03:30:06;;;;;;;30.05;15.40;;;;;;;4.44;50.15;103493.50;5016804;28;20522;-81
2022/12/19 03:32:33;;;;;;;34.70;16.85;;;;;;;4.50;50.39;103503.75;5034352;28;20546;-79
2022/12/19 03:35:04;;;;;;;34.38;16.52;;;;;;;4.56;50.18;103508.78;5036000;28;20382;-79
2022/12/19 03:37:34;;;;;;;28.10;14.27;;;;;;;4.54;50.48;103505.38;5034753;28;20465;-79
2022/12/19 03:40:03;;;;;;;29.25;15.02;;;;;;;4.64;50.14;103509.31;5034725;28;20403;-80
2022/12/19 03:45:25;;;;;;;52.95;23.08;;;;;;;4.67;49.68;103503.94;5015399;28;20530;-79
2022/12/19 03:47:57;;;;;;;38.30;18.88;;;;;;;4.75;50.27;103508.88;5014418;28;20391;-79
2022/12/19 03:50:26;;;;;;;37.80;18.15;;;;;;;4.79;49.98;103503.44;5014094;28;20451;-80
2022/12/19 03:53:17;;;;;;;26.50;14.00;;;;;;;4.72;50.09;103509.03;4996820;28;20388;-80
2022/12/19 03:55:49;;;;;;;68.38;27.15;;;;;;;4.63;50.32;103518.13;5006459;28;20516;-80
2022/12/19 03:58:25;;;;;;;35.25;16.40;;;;;;;4.53;50.45;103520.25;5033240;28;20406;-80
2022/12/19 04:00:51;;;;;;;101.43;34.53;;;;;;;4.47;50.64;103522.28;5032208;28;20386;-81
2022/12/19 04:03:18;;;;;;;90.72;33.03;;;;;;;4.42;50.68;103521.63;5032493;28;20401;-80
2022/12/19 04:05:45;;;;;;;49.25;20.85;;;;;;;4.51;50.60;103524.72;5032783;28;20463;-80
2022/12/19 04:08:12;;;;;;;35.20;18.05;;;;;;;4.52;50.22;103526.44;5033667;28;20444;-81
2022/12/19 04:10:54;;;;;;;29.90;16.40;;;;;;;4.52;49.96;103520.31;5016260;28;20406;-81
2022/12/19 04:13:26;;;;;;;29.02;16.83;;;;;;;4.50;50.07;103519.53;5030801;28;20417;-81
2022/12/19 04:15:59;;;;;;;33.72;18.02;;;;;;;4.43;50.15;103516.31;5014051;28;20410;-81
2022/12/19 04:18:25;;;;;;;33.25;18.85;;;;;;;4.45;50.13;103524.09;5032414;28;20838;-80
2022/12/19 04:21:01;;;;;;;27.70;16.40;;;;;;;4.48;50.26;103526.63;5032970;28;20401;-81
2022/12/19 04:23:49;;;;;;;33.80;16.80;;;;;;;4.39;50.48;103533.97;5033652;28;20398;-80
2022/12/19 04:26:18;;;;;;;37.30;18.48;;;;;;;4.42;50.63;103527.72;5033615;28;20845;-80
2022/12/19 04:28:55;;;;;;;29.27;16.20;;;;;;;4.41;50.38;103531.25;5031441;28;20882;-80
2022/12/19 04:31:22;;;;;;;37.58;18.67;;;;;;;4.47;50.56;103530.19;5025375;28;20475;-80
2022/12/19 04:33:48;;;;;;;37.35;18.27;;;;;;;4.56;50.35;103533.28;5031742;28;20413;-81
2022/12/19 04:36:13;;;;;;;33.43;16.97;;;;;;;4.58;49.87;103530.59;5033251;28;20395;-80
2022/12/19 04:38:39;;;;;;;29.87;16.30;;;;;;;4.49;50.19;103533.59;5033270;28;20394;-81
2022/12/19 04:41:05;;;;;;;36.80;17.00;;;;;;;4.55;50.58;103526.31;5032825;28;20422;-81
2022/12/19 04:43:30;;;;;;;29.60;17.47;;;;;;;4.65;49.82;103528.59;5032342;28;20520;-79
2022/12/19 04:45:56;;;;;;;30.63;16.97;;;;;;;4.73;50.07;103535.22;5032513;28;20394;-80
2022/12/19 04:48:21;;;;;;;40.45;19.40;;;;;;;4.76;50.11;103542.97;5031598;28;20509;-79
2022/12/19 04:50:46;;;;;;;37.67;18.35;;;;;;;4.68;50.26;103539.84;5031669;28;20476;-81
2022/12/19 04:53:12;;;;;;;41.60;18.70;;;;;;;4.62;50.44;103533.97;5013274;28;20905;-80
2022/12/19 04:55:39;;;;;;;36.03;18.07;;;;;;;4.63;50.40;103549.66;5027346;28;20438;-80
2022/12/19 04:58:05;;;;;;;31.85;17.27;;;;;;;4.66;50.40;103543.41;5009717;28;20448;-80
2022/12/19 05:00:31;;;;;;;39.80;20.05;;;;;;;4.62;50.52;103536.59;5023878;28;20720;-80
2022/12/19 05:02:57;;;;;;;29.27;16.20;;;;;;;4.69;50.70;103543.31;5028630;28;20522;-81
2022/12/19 05:05:22;;;;;;;33.13;17.53;;;;;;;4.81;50.29;103537.56;5008748;28;20446;-81
2022/12/19 05:07:48;;;;;;;32.63;16.83;;;;;;;4.73;50.29;103539.63;5030690;28;20397;-80
2022/12/19 05:10:14;;;;;;;36.40;18.30;;;;;;;4.66;50.35;103543.41;5022645;28;20906;-81
2022/12/19 05:12:39;;;;;;;45.00;21.20;;;;;;;4.65;50.41;103539.94;5030542;28;20704;-81
2022/12/19 05:15:05;;;;;;;39.60;19.25;;;;;;;4.73;50.54;103540.47;5010269;28;20464;-79
2022/12/19 05:17:31;;;;;;;39.20;21.05;;;;;;;4.72;50.62;103543.19;5030641;28;20386;-81
2022/12/19 05:19:56;;;;;;;32.70;18.05;;;;;;;4.72;50.06;103543.19;5019375;28;20384;-80
2022/12/19 05:22:22;;;;;;;34.47;17.67;;;;;;;4.72;50.35;103546.66;5026522;28;20394;-79
2022/12/19 05:24:47;;;;;;;33.60;18.17;;;;;;;4.70;50.24;103545.00;5031259;28;20402;-81
2022/12/19 05:27:13;;;;;;;33.00;17.50;;;;;;;4.70;50.49;103545.88;5015844;28;20495;-80
2022/12/19 05:29:38;;;;;;;34.28;17.83;;;;;;;4.60;50.51;103541.91;5034841;28;20414;-80
2022/12/19 05:32:04;;;;;;;41.07;21.03;;;;;;;4.70;50.41;103550.25;5022519;28;20470;-80
2022/12/19 05:34:29;;;;;;;37.20;19.63;;;;;;;4.69;50.38;103554.66;5029165;28;20409;-80
2022/12/19 05:36:55;;;;;;;45.67;24.23;;;;;;;4.64;50.99;103558.38;5035801;28;20839;-80
2022/12/19 05:39:20;;;;;;;45.13;23.85;;;;;;;4.65;50.29;103557.50;5035439;28;20393;-78
2022/12/19 05:41:45;;;;;;;40.70;21.30;;;;;;;4.63;50.39;103560.16;5035821;28;20448;-81
2022/12/19 05:44:11;;;;;;;47.40;23.37;;;;;;;4.71;50.54;103565.13;5017790;28;20390;-81
2022/12/19 05:46:36;;;;;;;49.70;24.27;;;;;;;4.79;50.58;103563.91;5034744;28;20408;-80
2022/12/19 05:49:02;;;;;;;37.63;19.70;;;;;;;4.77;50.40;103571.00;5036288;28;20402;-81
2022/12/19 05:51:27;;;;;;;35.53;19.03;;;;;;;4.68;50.84;103567.84;5034574;28;20399;-82
2022/12/19 05:53:53;;;;;;;36.92;19.17;;;;;;;4.50;50.77;103557.19;5034579;28;20414;-81
2022/12/19 05:56:21;;;;;;;36.50;19.17;;;;;;;4.53;51.18;103566.69;5034431;28;20386;-83
2022/12/19 05:58:48;;;;;;;42.50;21.30;;;;;;;4.67;51.22;103571.41;5033558;28;20398;-81
2022/12/19 06:01:27;;;;;;;40.50;22.77;;;;;;;4.70;50.76;103564.25;5033137;28;20858;-82
2022/12/19 06:03:54;;;;;;;45.55;23.13;;;;;;;4.67;50.84;103571.41;5029657;28;20393;-81
2022/12/19 06:06:22;;;;;;;35.73;19.40;;;;;;;4.55;51.40;103570.97;5033740;28;20402;-81
2022/12/19 06:08:50;;;;;;;32.80;17.95;;;;;;;4.55;51.22;103573.59;5017507;28;20799;-81
2022/12/19 06:11:16;;;;;;;36.03;20.25;;;;;;;4.50;51.18;103586.06;5035583;28;20843;-81
2022/12/19 06:13:41;;;;;;;34.95;18.90;;;;;;;4.48;51.63;103589.66;5032738;28;20410;-81
2022/12/19 06:16:11;;;;;;;30.40;17.20;;;;;;;4.48;51.46;103587.03;5034151;28;20472;-81
2022/12/19 06:18:38;;;;;;;31.70;17.45;;;;;;;4.53;51.39;103598.22;5021828;28;20455;-80
2022/12/19 06:21:09;;;;;;;32.53;18.10;;;;;;;4.58;51.78;103596.28;5020567;28;20767;-80
2022/12/19 06:23:36;;;;;;;34.47;17.70;;;;;;;4.56;52.00;103603.38;5039784;28;20406;-80
2022/12/19 06:26:03;;;;;;;31.77;17.60;;;;;;;4.63;51.96;103598.69;5020287;28;20783;-79
2022/12/19 06:28:30;;;;;;;31.27;17.67;;;;;;;4.64;51.86;103590.78;5035532;28;20402;-81
2022/12/19 06:30:58;;;;;;;29.02;15.23;;;;;;;4.57;51.93;103597.19;5031990;28;20516;-80
2022/12/19 06:33:24;;;;;;;35.60;17.40;;;;;;;4.40;52.71;103606.56;5033655;28;20394;-80
2022/12/19 06:36:19;;;;;;;32.95;17.83;;;;;;;4.55;52.29;103612.16;5014719;28;20556;-81
2022/12/19 06:38:45;;;;;;;31.07;17.17;;;;;;;4.64;52.19;103606.53;5014782;28;20746;-81
2022/12/19 06:43:57;;;;;;;37.92;20.23;;;;;;;4.92;51.84;103613.34;5032884;28;20477;-80
2022/12/19 06:46:23;;;;;;;38.05;20.50;;;;;;;5.07;51.37;103614.50;5032646;28;20902;-80
2022/12/19 06:48:48;;;;;;;35.83;20.20;;;;;;;5.17;51.62;103624.56;5033657;28;20425;-81
2022/12/19 06:51:14;;;;;;;39.92;21.80;;;;;;;5.21;51.49;103632.34;5033144;28;20841;-83
2022/12/19 06:53:39;;;;;;;35.95;20.15;;;;;;;5.23;51.73;103630.50;5033770;28;20379;-81
2022/12/19 06:56:05;;;;;;;79.90;42.47;;;;;;;5.28;51.13;103636.44;5016179;28;20452;-82
2022/12/19 06:58:32;;;;;;;39.47;22.85;;;;;;;5.35;51.13;103638.75;5031267;28;20391;-81
2022/12/19 07:00:57;;;;;;;39.75;21.52;;;;;;;5.32;51.93;103636.22;5027387;28;20483;-82
2022/12/19 07:03:26;;;;;;;40.53;20.23;;;;;;;5.38;51.49;103634.25;5025592;28;20486;-81
2022/12/19 07:05:52;;;;;;;40.60;20.55;;;;;;;5.31;51.73;103629.28;5033007;28;20382;-81
2022/12/19 07:08:18;;;;;;;39.08;21.48;;;;;;;5.28;52.30;103637.28;5015696;28;20397;-80
2022/12/19 07:10:43;;;;;;;36.33;20.00;;;;;;;5.25;52.27;103642.66;5032357;28;20406;-80
2022/12/19 07:13:09;;;;;;;43.07;21.47;;;;;;;5.27;52.93;103651.34;5032580;28;20477;-79
2022/12/19 07:15:35;;;;;;;38.07;21.37;;;;;;;5.30;52.74;103648.59;5031071;28;20480;-80
2022/12/19 07:18:04;;;;;;;38.63;20.90;;;;;;;5.27;53.50;103642.59;5033407;28;20378;-80
2022/12/19 07:20:31;;;;;;;44.53;21.35;;;;;;;5.33;53.17;103653.72;5032372;28;20461;-82
2022/12/19 07:22:57;;;;;;;40.80;22.63;;;;;;;5.33;53.84;103647.59;5033134;28;20387;-82
2022/12/19 07:25:22;;;;;;;42.03;21.43;;;;;;;5.36;53.77;103652.75;5032280;28;20398;-81
2022/12/19 07:27:48;;;;;;;47.13;25.43;;;;;;;5.30;54.26;103647.75;5014041;28;20477;-81
2022/12/19 07:30:13;;;;;;;47.40;24.42;;;;;;;5.35;55.03;103659.78;5022414;28;20416;-82
2022/12/19 07:32:39;;;;;;;55.63;27.30;;;;;;;5.27;55.22;103653.13;5006151;28;20437;-80
2022/12/19 07:35:06;;;;;;;35.90;18.00;;;;;;;5.04;57.03;103665.44;5021168;28;20477;-80
2022/12/19 07:37:31;;;;;;;34.00;18.00;;;;;;;5.11;57.30;103664.28;5013218;28;20392;-80
2022/12/19 07:39:57;;;;;;;32.93;17.50;;;;;;;5.04;58.02;103667.19;5021030;28;20384;-79
2022/12/19 07:42:22;;;;;;;34.60;17.90;;;;;;;5.03;58.48;103661.09;5017370;28;20459;-79
2022/12/19 07:44:48;;;;;;;32.80;17.47;;;;;;;4.94;59.12;103653.56;5031700;28;20438;-79
2022/12/19 07:47:13;;;;;;;31.27;17.10;;;;;;;4.95;59.47;103665.78;5031708;28;20395;-81
2022/12/19 07:49:39;;;;;;;32.20;16.67;;;;;;;4.93;59.67;103657.97;5029733;28;20775;-81
2022/12/19 07:52:04;;;;;;;33.97;17.90;;;;;;;5.01;59.07;103652.41;5022689;28;20915;-82
2022/12/19 07:54:30;;;;;;;37.85;18.42;;;;;;;4.91;59.98;103665.03;5016813;28;20378;-82
2022/12/19 07:56:55;;;;;;;36.17;18.53;;;;;;;4.75;60.92;103664.81;5018118;28;20395;-82
2022/12/19 07:59:21;;;;;;;42.97;19.63;;;;;;;4.68;61.04;103657.19;5009752;28;20387;-81
2022/12/19 08:01:46;;;;;;;43.20;20.35;;;;;;;4.54;61.84;103668.25;5027254;28;20408;-81
2022/12/19 08:04:12;;;;;;;42.60;21.30;;;;;;;4.78;61.91;103674.31;5023357;28;20386;-82
2022/12/19 08:06:37;;;;;;;44.45;20.50;;;;;;;4.77;61.37;103680.50;5017864;28;20375;-80
2022/12/19 08:09:04;;;;;;;48.73;21.67;;;;;;;4.56;62.52;103685.66;5025829;28;20424;-81
2022/12/19 08:11:29;;;;;;;46.92;21.38;;;;;;;4.67;62.12;103676.50;5023370;28;20393;-82
2022/12/19 08:13:56;;;;;;;49.85;21.65;;;;;;;4.65;62.32;103678.34;5024876;28;20413;-81
2022/12/19 08:16:24;;;;;;;46.88;21.35;;;;;;;4.55;62.58;103683.06;5023287;28;20897;-81
2022/12/19 08:18:49;;;;;;;39.57;19.07;;;;;;;4.62;62.70;103681.94;5020099;28;20403;-80
2022/12/19 08:21:15;;;;;;;37.63;18.10;;;;;;;4.68;62.19;103676.47;5014809;28;20383;-81
2022/12/19 08:23:40;;;;;;;41.47;19.27;;;;;;;4.58;62.09;103675.09;5026452;28;20452;-81
2022/12/19 08:26:12;;;;;;;41.03;18.43;;;;;;;4.40;63.05;103680.09;5036294;28;20380;-83
2022/12/19 08:28:38;;;;;;;42.25;20.05;;;;;;;4.44;63.04;103678.22;5022882;28;20388;-80
2022/12/19 08:31:08;;;;;;;47.60;21.80;;;;;;;4.73;61.80;103660.50;5028223;28;20419;-82
2022/12/19 08:33:33;;;;;;;46.17;21.17;;;;;;;4.93;61.36;103665.88;5027005;28;20392;-83
2022/12/19 08:36:03;;;;;;;52.47;22.85;;;;;;;4.75;61.95;103667.44;5022734;28;20474;-80
2022/12/19 08:38:29;;;;;;;50.05;23.35;;;;;;;4.86;61.19;103663.50;5025620;28;20717;-80
2022/12/19 08:40:54;;;;;;;47.57;21.80;;;;;;;5.02;60.95;103659.34;5017591;28;20445;-82
2022/12/19 08:43:20;;;;;;;52.10;23.30;;;;;;;5.05;60.71;103666.28;5033644;28;20379;-83
2022/12/19 08:45:49;;;;;;;51.10;23.30;;;;;;;5.18;60.60;103670.13;5022877;28;20394;-79
2022/12/19 08:48:16;;;;;;;49.70;23.58;;;;;;;5.30;59.60;103674.88;5032180;28;20374;-82
2022/12/19 08:50:56;;;;;;;48.00;22.92;;;;;;;5.10;60.26;103675.69;5013666;28;20477;-82
2022/12/19 08:53:23;;;;;;;45.08;22.95;;;;;;;5.01;60.50;103668.19;5026435;28;20429;-81
2022/12/19 08:55:57;;;;;;;47.55;22.48;;;;;;;5.11;60.30;103664.28;5012201;28;20388;-82
2022/12/19 08:58:24;;;;;;;49.88;24.10;;;;;;;4.98;60.81;103673.56;5023903;28;20388;-82
2022/12/19 09:00:51;;;;;;;49.15;24.08;;;;;;;5.09;60.54;103675.75;5035085;28;20389;-80
2022/12/19 09:03:17;;;;;;;47.58;22.48;;;;;;;5.00;60.41;103679.59;5027885;28;20410;-82
2022/12/19 09:05:42;;;;;;;75.53;35.72;;;;;;;5.19;59.99;103676.25;5029567;28;20467;-80
2022/12/19 09:08:08;;;;;;;50.70;23.57;;;;;;;5.35;59.46;103672.94;5011515;28;20410;-80
2022/12/19 09:10:37;;;;;;;47.23;26.47;;;;;;;5.37;59.20;103678.13;5020529;28;20438;-82
2022/12/19 09:13:05;;;;;;;42.97;24.58;;;;;;;5.45;59.40;103675.19;5026312;28;20473;-79
2022/12/19 09:15:31;;;;;;;51.38;29.38;;;;;;;5.92;61.49;103665.28;5026169;28;20384;-78
2022/12/19 09:17:56;;;;;;;40.47;19.40;;;;;;;5.82;59.40;103666.59;5025851;28;20880;-79
2022/12/19 09:20:22;;;;;;;36.70;18.42;;;;;;;5.66;58.93;103671.66;5015821;28;20382;-78
2022/12/19 09:22:47;;;;;;;38.73;18.67;;;;;;;5.63;58.89;103674.41;5015331;28;20376;-80
2022/12/19 09:25:16;;;;;;;37.90;22.47;;;;;;;5.69;58.85;103670.66;5030346;28;20407;-81
2022/12/19 09:27:42;;;;;;;40.30;18.90;;;;;;;5.66;58.37;103655.88;5027041;28;20444;-78
2022/12/19 09:30:08;;;;;;;38.22;18.55;;;;;;;5.71;58.06;103669.69;5018510;28;20416;-79
2022/12/19 09:32:34;;;;;;;34.78;19.15;;;;;;;5.63;58.03;103663.03;5020554;28;20386;-79
2022/12/19 09:34:59;;;;;;;36.90;20.40;;;;;;;5.55;58.26;103669.47;5024272;28;20404;-80
2022/12/19 09:37:25;;;;;;;39.83;19.30;;;;;;;5.54;58.39;103664.28;5027324;28;20399;-79
2022/12/19 09:39:50;;;;;;;43.43;20.77;;;;;;;5.67;58.26;103654.09;5025949;28;20398;-79
2022/12/19 09:42:18;;;;;;;41.33;20.30;;;;;;;5.73;57.46;103664.38;5037807;28;20409;-80
2022/12/19 09:45:02;;;;;;;46.47;23.23;;;;;;;5.61;57.85;103659.63;5015592;28;20388;-78
2022/12/19 09:47:30;;;;;;;48.80;22.45;;;;;;;5.64;58.23;103662.97;5017335;28;20725;-80
2022/12/19 09:49:58;;;;;;;45.77;21.60;;;;;;;5.65;58.20;103663.81;5020656;28;20522;-79
2022/12/19 09:52:57;;;;;;;43.23;21.77;;;;;;;5.57;58.78;103664.16;5012513;28;20391;-78
2022/12/19 09:55:35;;;;;;;47.53;20.67;;;;;;;5.58;58.61;103663.22;5003663;28;20482;-79
2022/12/19 09:58:12;;;;;;;48.47;22.35;;;;;;;5.50;58.92;103665.31;5011976;28;20890;-78
2022/12/19 10:00:49;;;;;;;48.47;22.85;;;;;;;5.50;58.69;103674.06;5022073;28;20425;-79
2022/12/19 10:03:50;;;;;;;50.78;22.80;;;;;;;5.43;58.55;103669.13;5029497;28;20412;-79
2022/12/19 10:06:20;;;;;;;51.88;22.63;;;;;;;5.48;58.97;103661.91;5014299;28;20406;-79
2022/12/19 10:08:47;;;;;;;53.72;22.13;;;;;;;5.39;59.20;103665.78;5012403;28;20394;-79
2022/12/19 10:12:00;;;;;;;50.13;22.65;;;;;;;5.26;60.01;103664.56;5028736;28;20448;-80
2022/12/19 10:14:51;;;;;;;55.30;25.60;;;;;;;5.21;59.79;103653.38;5031843;28;20770;-79
2022/12/19 10:17:37;;;;;;;49.97;24.40;;;;;;;5.15;60.34;103657.97;5033627;28;20382;-79
2022/12/19 10:20:15;;;;;;;55.33;23.85;;;;;;;4.83;61.53;103661.03;5033006;28;20477;-79
2022/12/19 10:23:09;;;;;;;60.13;26.05;;;;;;;4.96;61.33;103646.47;5032734;28;20390;-81
2022/12/19 10:26:10;;;;;;;51.92;23.65;;;;;;;4.93;61.23;103638.69;5030486;28;20404;-81
2022/12/19 10:29:14;;;;;;;51.65;24.42;;;;;;;5.12;60.57;103644.09;5025278;28;20406;-79
2022/12/19 10:32:03;;;;;;;57.38;27.02;;;;;;;5.19;60.84;103645.56;5011582;28;20416;-80
2022/12/19 10:34:44;;;;;;;47.97;23.88;;;;;;;5.13;59.96;103637.91;5025713;28;20406;-78
2022/12/19 10:37:24;;;;;;;48.60;24.85;;;;;;;5.13;60.33;103646.66;5034584;28;20382;-79
2022/12/19 10:39:52;;;;;;;48.00;23.00;;;;;;;5.13;60.24;103636.13;5017868;28;20416;-79
2022/12/19 10:42:48;;;;;;;38.33;19.65;;;;;;;4.94;60.45;103641.28;5034303;28;20404;-79
2022/12/19 10:45:20;;;;;;;45.40;20.92;;;;;;;4.83;60.74;103645.25;5011140;28;20377;-79
2022/12/19 10:47:48;;;;;;;45.33;21.27;;;;;;;4.86;60.52;103635.47;5030993;28;20467;-80
2022/12/19 10:50:21;;;;;;;47.13;22.73;;;;;;;4.75;60.67;103650.78;5031582;28;20498;-80
2022/12/19 10:52:51;;;;;;;43.88;20.42;;;;;;;4.83;60.65;103640.00;5038537;28;20441;-79
2022/12/19 10:55:47;;;;;;;40.70;19.45;;;;;;;4.55;61.42;103651.56;5038329;28;20394;-80
2022/12/19 10:58:49;;;;;;;42.67;21.25;;;;;;;4.57;61.11;103649.72;5016501;28;20397;-80
2022/12/19 11:01:24;;;;;;;48.08;20.92;;;;;;;4.61;61.46;103643.44;4986847;28;20471;-80
2022/12/19 11:04:10;;;;;;;46.33;22.42;;;;;;;4.82;60.79;103644.38;5034272;28;20477;-79
2022/12/19 11:06:38;;;;;;;47.20;22.65;;;;;;;4.90;60.14;103644.94;5031311;28;20391;-80
2022/12/19 11:09:28;;;;;;;42.88;21.60;;;;;;;4.96;59.91;103639.44;5024486;28;20450;-81
2022/12/19 11:12:00;;;;;;;52.72;23.77;;;;;;;4.86;59.79;103626.72;5034346;28;20394;-79
2022/12/19 11:14:30;;;;;;;40.80;20.70;;;;;;;4.83;60.31;103645.25;5035621;28;20392;-81
2022/12/19 11:16:56;;;;;;;39.15;20.30;;;;;;;4.86;60.18;103646.00;5035618;28;20393;-80
2022/12/19 11:19:37;;;;;;;46.28;22.52;;;;;;;4.98;59.27;103644.63;5032358;28;20383;-81
2022/12/19 11:22:15;;;;;;;42.42;21.15;;;;;;;4.90;59.30;103630.94;5008618;28;20873;-80
2022/12/19 11:24:45;;;;;;;38.03;19.15;;;;;;;4.90;59.41;103633.59;5034210;28;20389;-80
2022/12/19 11:27:49;;;;;;;36.05;19.23;;;;;;;4.56;60.10;103642.78;5032986;28;20489;-79
2022/12/19 11:30:14;;;;;;;36.15;17.98;;;;;;;4.20;60.12;103645.84;4994161;28;20489;-80
2022/12/19 11:32:42;;;;;;;33.83;17.50;;;;;;;4.32;59.76;103649.78;4995264;28;20821;-81
2022/12/19 11:35:28;;;;;;;34.47;17.00;;;;;;;4.27;60.21;103665.72;5000383;28;20385;-81
2022/12/19 11:37:59;;;;;;;38.70;17.67;;;;;;;4.00;60.34;103663.16;5003587;28;20502;-82